Bristol, New Hampshire
Current Conditions -  °F | °C
As of 3:55 AM on Sunday 26 Oct 2014 (Local Time) from K1P1 Reporting Station
Haze Haze  
Wind Chill:   Ceiling: Unl
Heat Index:   Visibility: 2mi
Dew Point:   Wind: 0mph
Humidity: 100%   Direction: NA
Pressure: 29.41"   Gusts: NA
Location:  43.6°N, 71.75°W
Report Text: K1P1 260755Z AUTO 00000KT 2SM BR CLR 03/03 A2941 RMK AO2 T00340034
Loading
Personal Weather Stations






























Interactive Weather Map
Tropical Storm Tracking
New forecast layout! Learn more

10-Day Weather Forecast

Advertisements
Track Severe Weather on mobile